createdAt,value
2019-05-01T00:03:21.578Z,10
2019-05-01T00:08:26.865Z,9.1
2019-05-01T00:13:31.848Z,11.2
2019-05-01T00:18:37.080Z,9.6
2019-05-01T00:23:41.997Z,10.1
2019-05-01T00:28:47.220Z,9.2
2019-05-01T00:33:52.169Z,8.7
2019-05-01T00:38:57.270Z,8.5
2019-05-01T00:44:02.381Z,8.4
2019-05-01T00:49:06.288Z,7.8
2019-05-01T00:54:11.483Z,6.2
2019-05-01T00:59:16.764Z,6
2019-05-01T01:04:21.782Z,5.5
2019-05-01T01:09:26.996Z,5.4
2019-05-01T01:14:32.075Z,5.6
2019-05-01T01:19:37.350Z,4.7
2019-05-01T01:24:42.387Z,4.4
2019-05-01T01:29:47.444Z,4.6
2019-05-01T01:34:52.596Z,4.7
2019-05-01T01:39:57.800Z,6.2
2019-05-01T01:45:02.825Z,6.8
2019-05-01T01:50:08.081Z,7.6
2019-05-01T01:55:13.203Z,7.7
2019-05-01T02:00:18.337Z,7
2019-05-01T02:05:23.384Z,7.8
2019-05-01T02:10:41.738Z,7.1
2019-05-01T02:15:38.033Z,6.9
2019-05-01T02:20:42.988Z,6.5
2019-05-01T02:25:48.018Z,6.3
2019-05-01T02:30:53.242Z,6
2019-05-01T02:35:58.365Z,5.7
2019-05-01T02:41:03.460Z,7.7
2019-05-01T02:46:08.415Z,5.6
2019-05-01T02:51:13.733Z,6.2
2019-05-01T02:56:18.600Z,5.6
2019-05-01T03:01:23.652Z,6.4
2019-05-01T03:06:28.796Z,7.3
2019-05-01T03:11:34.057Z,6.9
2019-05-01T03:16:39.117Z,7
2019-05-01T03:21:44.302Z,6.9
2019-05-01T03:26:49.359Z,7.8
2019-05-01T03:32:15.160Z,8.1
2019-05-01T03:36:54.421Z,8.7
2019-05-01T03:41:59.433Z,8.8
2019-05-01T03:47:04.372Z,10.1
2019-05-01T03:52:09.497Z,9
2019-05-01T03:57:14.590Z,9.8
2019-05-01T04:02:32.685Z,10.2
2019-05-01T04:07:29.451Z,11.3
2019-05-01T04:12:38.972Z,10.1
2019-05-01T04:17:44.081Z,10.5
2019-05-01T04:22:49.196Z,11.5
2019-05-01T04:27:54.216Z,12.7
2019-05-01T04:33:03.334Z,11.4
2019-05-01T04:38:08.361Z,12
2019-05-01T04:43:13.435Z,12.4
2019-05-01T04:48:18.536Z,12.3
2019-05-01T04:53:23.728Z,11.3
2019-05-01T04:58:28.836Z,12.4
2019-05-01T05:03:36.630Z,14.1
2019-05-01T05:08:41.597Z,10.3
2019-05-01T05:13:47.031Z,10
2019-05-01T05:18:54.942Z,11.7
2019-05-01T05:24:00.201Z,12.6
2019-05-01T05:29:07.432Z,10.3
2019-05-01T05:34:12.649Z,11.3
2019-05-01T05:39:20.915Z,10.9
2019-05-01T05:44:26.367Z,12.2
2019-05-01T05:49:31.414Z,11.8
2019-05-01T05:54:36.576Z,11.5
2019-05-01T05:59:44.312Z,10.5
2019-05-01T06:04:49.629Z,12.5
2019-05-01T06:09:54.463Z,11.5
2019-05-01T06:15:02.257Z,11.4
2019-05-01T06:20:02.438Z,11.7
2019-05-01T06:25:07.404Z,11.7
2019-05-01T06:30:10.969Z,10.4
2019-05-01T06:35:15.443Z,10.9
2019-05-01T06:40:22.418Z,11.5
2019-05-01T06:45:28.205Z,12.7
2019-05-01T06:50:36.941Z,13.3
2019-05-01T06:55:36.424Z,10.2
2019-05-01T07:00:42.991Z,10.7
2019-05-01T07:05:54.190Z,11.2
2019-05-01T07:10:50.727Z,10.7
2019-05-01T07:15:58.348Z,10.9
2019-05-01T07:20:57.935Z,10.6
2019-05-01T07:26:03.008Z,12.5
2019-05-01T07:31:08.221Z,13.6
2019-05-01T07:36:15.099Z,10.6
2019-05-01T07:41:21.747Z,11.9
2019-05-01T07:46:22.591Z,12.8
2019-05-01T07:51:42.288Z,10.9
2019-05-01T07:56:41.426Z,13.9
2019-05-01T08:01:43.900Z,14.1
2019-05-01T08:11:52.093Z,12.7
2019-05-01T08:16:48.986Z,9.4
2019-05-01T08:21:46.543Z,11
2019-05-01T08:26:51.422Z,10.4
2019-05-01T08:31:58.716Z,9.7
2019-05-01T08:37:06.261Z,10.9
2019-05-01T08:42:12.177Z,10.4
2019-05-01T08:47:20.616Z,10.5
2019-05-01T08:52:21.788Z,9
2019-05-01T09:02:49.309Z,10.3
2019-05-01T09:33:42.041Z,8.5
2019-05-01T09:38:50.064Z,8.7
2019-05-01T09:43:55.768Z,9.3
2019-05-01T09:49:01.466Z,10.8
2019-05-01T09:54:05.532Z,11.8
2019-05-01T09:59:04.745Z,11.8
2019-05-01T10:04:09.544Z,8.8
2019-05-01T10:09:17.940Z,11.1
2019-05-01T10:14:23.426Z,13
2019-05-01T10:19:31.409Z,10.2
2019-05-01T10:24:37.327Z,10.6
2019-05-01T10:29:44.273Z,12.4
2019-05-01T10:34:47.742Z,8.6
2019-05-01T10:39:53.993Z,9.6
2019-05-01T10:44:59.996Z,8.5
2019-05-01T10:50:05.396Z,11.1
2019-05-01T10:55:10.349Z,10
2019-05-01T11:00:15.526Z,11.3
2019-05-01T11:05:20.739Z,19.3
2019-05-01T11:10:26.041Z,13.6
2019-05-01T11:15:34.440Z,16.9
2019-05-01T11:20:38.486Z,17
2019-05-01T11:25:44.492Z,20.5
2019-05-01T11:30:50.087Z,17.3
2019-05-01T11:35:55.114Z,15.9
2019-05-01T11:41:00.875Z,15.8
2019-05-01T11:46:04.764Z,14.3
2019-05-01T11:51:10.254Z,17.4
2019-05-01T11:56:15.599Z,12.5
2019-05-01T12:01:21.021Z,15.4
2019-05-01T12:06:24.557Z,16.2
2019-05-01T12:11:25.263Z,16.8
2019-05-01T12:16:30.216Z,15.7
2019-05-01T12:21:35.640Z,18.8
2019-05-01T12:26:41.056Z,16.3
2019-05-01T12:31:46.210Z,18.9
2019-05-01T12:36:51.536Z,18
2019-05-01T12:41:57.073Z,15.1
2019-05-01T12:47:02.152Z,20.3
2019-05-01T12:52:11.802Z,14.6
2019-05-01T12:57:16.878Z,19.1
2019-05-01T13:02:22.228Z,16.8
2019-05-01T13:07:29.357Z,18.5
2019-05-01T13:12:34.905Z,19.1
2019-05-01T13:17:39.923Z,14.2
2019-05-01T13:22:45.394Z,15.8
2019-05-01T13:27:50.379Z,14.8
2019-05-01T13:32:55.516Z,17.6
2019-05-01T13:38:00.746Z,23.4
2019-05-01T13:43:06.057Z,20.2
2019-05-01T13:48:11.844Z,16
2019-05-01T13:53:17.116Z,15.8
2019-05-01T13:58:22.013Z,15.2
2019-05-01T14:03:27.673Z,14.7
2019-05-01T14:08:32.846Z,15.3
2019-05-01T14:13:40.159Z,16.7
2019-05-01T14:18:45.482Z,13.6
2019-05-01T14:23:51.029Z,18.4
2019-05-01T14:28:56.176Z,14.9
2019-05-01T14:34:01.267Z,16.1
2019-05-01T14:39:06.406Z,15.2
2019-05-01T14:44:11.476Z,12.9
2019-05-01T14:49:16.478Z,12.7
2019-05-01T14:54:21.784Z,16.6
2019-05-01T14:59:27.082Z,14.1
2019-05-01T15:04:32.125Z,15.4
2019-05-01T15:09:37.222Z,16.4
2019-05-01T15:14:42.397Z,13.7
2019-05-01T15:19:47.722Z,16.8
2019-05-01T15:24:52.900Z,19.9
2019-05-01T15:29:57.938Z,12.7
2019-05-01T15:35:01.676Z,18.1
2019-05-01T15:40:05.449Z,15.4
2019-05-01T15:45:11.844Z,15.7
2019-05-01T15:50:13.077Z,10.7
2019-05-01T15:55:18.225Z,15.7
2019-05-01T16:00:23.488Z,14.6
2019-05-01T16:05:28.613Z,17.1
2019-05-01T16:10:33.717Z,15.8
2019-05-01T16:15:38.992Z,13.2
2019-05-01T16:20:44.065Z,14.4
2019-05-01T16:25:52.037Z,18.2
2019-05-01T16:30:57.053Z,12.3
2019-05-01T16:36:02.320Z,16.6
2019-05-01T16:41:07.446Z,11.6
2019-05-01T16:46:12.568Z,19.2
2019-05-01T16:51:18.932Z,16.2
2019-05-01T16:56:24.443Z,13
2019-05-01T17:01:30.412Z,15
2019-05-01T17:06:35.773Z,18
2019-05-01T17:11:44.075Z,13.1
2019-05-01T17:16:49.215Z,10.6
2019-05-01T17:21:56.013Z,16
2019-05-01T17:27:04.507Z,18.3
2019-05-01T17:32:11.617Z,14.7
2019-05-01T17:37:10.030Z,18.1
2019-05-01T17:42:14.397Z,13.3
2019-05-01T17:47:22.401Z,14.8
2019-05-01T17:52:21.385Z,18.2
2019-05-01T17:57:26.342Z,13.3
2019-05-01T18:02:31.246Z,15.4
2019-05-01T18:07:34.966Z,14.3
2019-05-01T18:12:40.515Z,16.2
2019-05-01T18:17:45.597Z,12.9
2019-05-01T18:22:50.544Z,14.8
2019-05-01T18:27:59.832Z,18.4
2019-05-01T18:33:06.242Z,21.1
2019-05-01T18:38:12.760Z,15.4
2019-05-01T18:43:19.092Z,13.8
2019-05-01T18:48:25.325Z,13.9
2019-05-01T18:53:31.017Z,15.9
2019-05-01T18:58:37.286Z,18.5
2019-05-01T19:03:44.173Z,20.7
2019-05-01T19:08:52.920Z,21
2019-05-01T19:13:57.857Z,21.7
2019-05-01T19:19:04.022Z,20.8
2019-05-01T19:24:07.868Z,13.7
2019-05-01T19:29:12.938Z,15.7
2019-05-01T19:34:18.579Z,13.9
2019-05-01T19:39:23.626Z,14.4
2019-05-01T19:44:27.233Z,15.3
2019-05-01T19:49:33.364Z,12.3
2019-05-01T19:54:39.348Z,14.3
2019-05-01T19:59:45.006Z,18.2
2019-05-01T20:04:52.385Z,17.1
2019-05-01T20:09:58.314Z,15.8
2019-05-01T20:15:08.180Z,15.8
2019-05-01T20:20:13.459Z,16.8
2019-05-01T20:25:19.515Z,18.3
2019-05-01T20:30:28.355Z,19.6
2019-05-01T20:35:36.604Z,17.7
2019-05-01T20:40:41.884Z,21.1
2019-05-01T20:45:49.308Z,19.3
2019-05-01T20:50:54.364Z,18.3
2019-05-01T20:55:59.773Z,20.1
2019-05-01T21:01:05.277Z,25.3
2019-05-01T21:06:09.255Z,20.7
2019-05-01T21:11:14.600Z,21
2019-05-01T21:16:19.701Z,20.7
2019-05-01T21:21:25.058Z,19.9
2019-05-01T21:26:30.251Z,21.2
2019-05-01T21:31:36.605Z,21.6
2019-05-01T21:36:42.308Z,21.9
2019-05-01T21:41:47.976Z,21.3
2019-05-01T21:46:53.557Z,21
2019-05-01T21:51:58.947Z,22.2
2019-05-01T21:57:06.626Z,22.1
2019-05-01T22:02:11.906Z,21.8
2019-05-01T22:07:17.027Z,22.4
2019-05-01T22:12:26.640Z,21.5
2019-05-01T22:17:32.053Z,23.7
2019-05-01T22:22:38.595Z,24.3
2019-05-01T22:27:40.508Z,22.7
2019-05-01T22:32:45.785Z,26.9
2019-05-01T22:37:50.930Z,21.6
2019-05-01T22:42:54.493Z,22.8
2019-05-01T22:47:59.677Z,22.1
2019-05-01T22:53:07.731Z,25.6
2019-05-01T22:58:06.328Z,27.5
2019-05-01T23:03:11.327Z,23.7
2019-05-01T23:08:16.785Z,24.3
2019-05-01T23:13:23.120Z,25
2019-05-01T23:18:28.247Z,26
2019-05-01T23:23:32.872Z,24.5
2019-05-01T23:28:39.704Z,26.7
2019-05-01T23:33:50.528Z,26.6
2019-05-01T23:38:56.551Z,25.6
2019-05-01T23:44:03.363Z,26.3
2019-05-01T23:49:09.987Z,25.1
2019-05-01T23:54:15.092Z,26.5
2019-05-01T23:59:20.320Z,27.4
